Time;durP1;ratioP1;P1;durP2;ratioP2;P2;SDS_P1;SDS_P2;PMS_P1;PMS_P2;Temp;Humidity;BMP_temperature;BMP_pressure;BME280_temperature;BME280_humidity;BME280_pressure;Samples;Min_cycle;Max_cycle;Signal;HPM_P1;HPM_P2
2022/03/26 00:00:18;;;;;;;65.07;21.77;;;2.40;1.00;;;;;;4309491;28;657727;-89
2022/03/26 00:03:06;;;;;;;54.33;20.00;;;2.30;1.00;;;;;;4313903;28;657818;-89
2022/03/26 00:05:53;;;;;;;59.43;21.00;;;2.20;1.00;;;;;;4331732;28;659553;-89
2022/03/26 00:08:41;;;;;;;62.27;20.87;;;2.20;1.00;;;;;;4316150;28;657534;-89
2022/03/26 00:11:28;;;;;;;61.17;20.40;;;2.10;1.00;;;;;;4337594;28;658204;-89
2022/03/26 00:14:15;;;;;;;59.13;21.58;;;2.00;1.00;;;;;;4306038;28;657789;-89
2022/03/26 00:17:05;;;;;;;53.80;20.23;;;2.00;1.00;;;;;;4335168;28;657817;-89
2022/03/26 00:19:52;;;;;;;56.80;21.03;;;1.90;1.00;;;;;;4310524;28;658392;-89
2022/03/26 00:22:39;;;;;;;58.87;20.10;;;1.90;1.00;;;;;;4335765;28;657138;-90
2022/03/26 00:25:27;;;;;;;52.63;20.73;;;1.90;1.00;;;;;;4316466;28;657826;-89
2022/03/26 00:28:14;;;;;;;56.33;19.97;;;1.80;1.00;;;;;;4332057;28;657322;-89
2022/03/26 00:31:02;;;;;;;46.10;19.00;;;1.80;1.00;;;;;;4314448;28;657902;-89
2022/03/26 00:33:52;;;;;;;58.87;21.40;;;1.80;1.00;;;;;;4336673;28;657509;-89
2022/03/26 00:36:39;;;;;;;64.27;22.60;;;1.80;1.00;;;;;;4320957;28;657297;-88
2022/03/26 00:39:26;;;;;;;62.30;20.93;;;1.70;1.00;;;;;;4318605;28;657595;-89
2022/03/26 00:42:15;;;;;;;73.93;25.97;;;1.70;1.00;;;;;;4339397;28;657899;-88
2022/03/26 00:45:02;;;;;;;89.67;33.03;;;1.80;1.00;;;;;;4315052;28;657596;-88
2022/03/26 00:47:50;;;;;;;84.73;31.40;;;1.80;1.00;;;;;;4339815;28;657010;-88
2022/03/26 00:50:38;;;;;;;92.60;34.07;;;1.90;1.00;;;;;;4317807;28;658028;-87
2022/03/26 00:53:26;;;;;;;105.03;39.03;;;1.90;1.00;;;;;;4315604;28;657441;-88
2022/03/26 00:56:13;;;;;;;110.82;42.15;;;1.90;1.00;;;;;;4341107;28;658777;-88
2022/03/26 00:59:01;;;;;;;104.43;40.00;;;2.00;1.00;;;;;;4312420;28;658629;-88
2022/03/26 01:01:48;;;;;;;120.93;41.60;;;1.90;1.00;;;;;;4329931;28;658892;-88
2022/03/26 01:04:36;;;;;;;118.20;41.30;;;1.90;1.00;;;;;;4319030;28;658684;-88
2022/03/26 01:07:25;;;;;;;115.10;43.63;;;1.90;1.00;;;;;;4335184;28;659107;-88
2022/03/26 01:10:12;;;;;;;110.13;42.43;;;1.90;1.00;;;;;;4315680;28;658836;-88
2022/03/26 01:13:00;;;;;;;126.73;46.50;;;1.80;1.00;;;;;;4331063;28;658141;-88
2022/03/26 01:15:47;;;;;;;137.50;51.23;;;1.90;1.00;;;;;;4313027;28;659359;-87
2022/03/26 01:18:35;;;;;;;146.27;52.53;;;2.10;1.00;;;;;;4341600;28;658783;-87
2022/03/26 01:21:22;;;;;;;130.23;48.27;;;2.20;1.00;;;;;;4319226;28;658605;-87
2022/03/26 01:24:11;;;;;;;138.00;51.27;;;2.20;1.00;;;;;;4336571;28;658158;-88
2022/03/26 01:26:58;;;;;;;130.57;49.90;;;2.20;1.00;;;;;;4309755;28;658798;-88
2022/03/26 01:29:46;;;;;;;134.87;49.27;;;2.30;1.00;;;;;;4309221;28;658901;-89
2022/03/26 01:32:33;;;;;;;132.57;49.13;;;2.40;1.00;;;;;;4337360;28;658733;-91
2022/03/26 01:35:21;;;;;;;138.20;49.43;;;2.60;1.00;;;;;;4316076;28;658893;-88
2022/03/26 01:38:08;;;;;;;130.20;49.53;;;2.70;1.00;;;;;;4334944;28;658779;-89
2022/03/26 01:40:57;;;;;;;130.43;50.13;;;2.60;1.00;;;;;;4310779;28;658727;-89
2022/03/26 01:43:46;;;;;;;135.38;49.92;;;2.50;1.00;;;;;;4335368;28;658544;-89
2022/03/26 01:46:46;;;;;;;148.27;51.00;;;2.40;1.00;;;;;;4315894;28;658940;-90
2022/03/26 01:49:33;;;;;;;138.27;51.57;;;2.20;1.00;;;;;;4302769;28;658703;-90
2022/03/26 01:52:21;;;;;;;128.97;49.17;;;2.00;1.00;;;;;;4305402;28;658658;-90
2022/03/26 01:55:09;;;;;;;142.20;50.57;;;2.00;10.60;;;;;;4321794;28;659185;-90
2022/03/26 01:57:57;;;;;;;134.60;49.07;;;1.90;12.30;;;;;;4299338;28;659591;-90
2022/03/26 02:00:45;;;;;;;125.20;47.47;;;1.80;56.00;;;;;;4315776;29;659478;-90
2022/03/26 02:03:33;;;;;;;128.63;46.70;;;1.70;99.90;;;;;;4326265;28;660153;-90
2022/03/26 02:06:22;;;;;;;127.03;48.87;;;1.70;99.90;;;;;;4316673;28;659533;-89
2022/03/26 02:09:10;;;;;;;123.93;46.77;;;1.70;99.90;;;;;;4326453;29;659845;-89
2022/03/26 02:11:58;;;;;;;135.90;46.70;;;1.70;99.90;;;;;;4310042;28;660312;-90
2022/03/26 02:14:47;;;;;;;123.77;44.57;;;1.80;99.90;;;;;;4312994;28;660057;-90
2022/03/26 02:17:34;;;;;;;128.57;46.20;;;2.00;99.90;;;;;;4334761;28;659503;-90
2022/03/26 02:20:23;;;;;;;131.40;45.37;;;2.30;99.90;;;;;;4312929;28;659728;-94
2022/03/26 02:23:10;;;;;;;125.65;45.55;;;2.60;90.00;;;;;;4315872;28;659513;-91
2022/03/26 02:25:58;;;;;;;121.23;47.23;;;2.70;1.00;;;;;;4324314;28;660315;-91
2022/03/26 02:28:46;;;;;;;124.93;46.47;;;2.80;1.00;;;;;;4317665;28;658619;-89
2022/03/26 02:31:33;;;;;;;98.83;33.50;;;2.90;1.00;;;;;;4338601;28;659299;-90
2022/03/26 02:34:21;;;;;;;138.60;46.80;;;3.20;1.00;;;;;;4318167;28;658208;-88
2022/03/26 02:37:10;;;;;;;140.97;46.43;;;3.40;1.00;;;;;;4333756;28;658666;-88
2022/03/26 02:39:58;;;;;;;130.00;46.30;;;3.40;1.00;;;;;;4312237;28;659025;-88
2022/03/26 02:42:45;;;;;;;125.73;47.23;;;3.30;1.00;;;;;;4325844;28;658487;-87
2022/03/26 02:45:33;;;;;;;134.20;49.33;;;3.20;1.00;;;;;;4335142;28;658964;-88
2022/03/26 02:48:20;;;;;;;132.43;48.97;;;3.20;1.00;;;;;;4322142;28;658655;-88
2022/03/26 02:51:09;;;;;;;145.30;50.47;;;3.00;1.00;;;;;;4323224;28;659367;-89
2022/03/26 02:53:57;;;;;;;132.87;48.37;;;2.80;1.00;;;;;;4309208;28;658810;-89
2022/03/26 02:56:46;;;;;;;137.53;49.60;;;2.60;1.00;;;;;;4336330;28;659738;-88
2022/03/26 02:59:33;;;;;;;144.13;51.00;;;2.40;1.00;;;;;;4333936;28;659355;-90
2022/03/26 03:02:21;;;;;;;125.37;49.53;;;2.30;75.50;;;;;;4314988;28;658472;-88
2022/03/26 03:05:09;;;;;;;123.77;48.13;;;2.30;48.50;;;;;;4329454;28;660182;-87
2022/03/26 03:07:56;;;;;;;137.97;48.83;;;2.10;99.90;;;;;;4306419;28;659641;-87
2022/03/26 03:10:45;;;;;;;131.57;48.63;;;2.00;99.90;;;;;;4338198;28;659974;-88
2022/03/26 03:13:33;;;;;;;136.17;50.63;;;1.90;99.90;;;;;;4313334;28;660333;-87
2022/03/26 03:16:20;;;;;;;143.07;49.83;;;1.80;99.90;;;;;;4315463;28;660212;-87
2022/03/26 03:19:08;;;;;;;135.80;52.07;;;1.70;99.90;;;;;;4328330;28;660305;-88
2022/03/26 03:21:55;;;;;;;135.13;49.23;;;1.60;99.90;;;;;;4312511;28;659663;-89
2022/03/26 03:24:43;;;;;;;138.97;48.40;;;1.50;99.90;;;;;;4323276;28;660130;-90
2022/03/26 03:27:32;;;;;;;140.98;50.50;;;1.40;1.00;;;;;;4298399;28;660062;-90
2022/03/26 03:30:19;;;;;;;137.47;51.87;;;1.40;1.00;;;;;;4318625;28;658142;-90
2022/03/26 03:33:07;;;;;;;148.90;50.97;;;1.30;1.00;;;;;;4296561;28;658713;-91
2022/03/26 03:35:55;;;;;;;138.23;51.03;;;1.30;1.00;;;;;;4315410;28;658574;-89
2022/03/26 03:38:42;;;;;;;136.10;51.13;;;1.20;1.00;;;;;;4293712;29;658732;-89
2022/03/26 03:41:29;;;;;;;139.10;50.83;;;1.20;1.00;;;;;;4322476;28;658347;-89
2022/03/26 03:44:18;;;;;;;135.00;49.30;;;1.10;1.00;;;;;;4296443;28;658913;-91
2022/03/26 03:47:06;;;;;;;130.63;48.23;;;1.00;3.90;;;;;;4295184;28;658898;-91
2022/03/26 03:49:54;;;;;;;141.23;51.80;;;1.10;15.60;;;;;;4315970;29;658573;-88
2022/03/26 03:52:41;;;;;;;134.70;49.23;;;1.10;5.00;;;;;;4295652;28;659847;-88
2022/03/26 03:55:28;;;;;;;134.20;49.77;;;1.10;31.90;;;;;;4322469;28;658464;-89
2022/03/26 03:58:16;;;;;;;140.73;49.57;;;1.00;99.90;;;;;;4300100;28;659622;-90
2022/03/26 04:01:05;;;;;;;140.33;49.20;;;1.10;99.90;;;;;;4304393;28;660619;-90
2022/03/26 04:03:52;;;;;;;136.67;50.90;;;1.10;99.90;;;;;;4288033;28;659745;-90
2022/03/26 04:06:39;;;;;;;134.27;48.83;;;1.10;99.90;;;;;;4325654;28;659634;-91
2022/03/26 04:09:27;;;;;;;132.90;47.73;;;1.10;99.90;;;;;;4297161;28;660201;-91
2022/03/26 04:12:14;;;;;;;130.80;48.70;;;1.10;99.90;;;;;;4325069;28;659717;-92
2022/03/26 04:15:02;;;;;;;143.77;51.00;;;1.10;99.90;;;;;;4294203;28;659814;-91
2022/03/26 04:17:52;;;;;;;136.03;49.93;;;0.90;99.90;;;;;;4318033;28;659768;-91
2022/03/26 04:20:40;;;;;;;130.77;49.10;;;0.90;99.90;;;;;;4302526;28;659795;-92
2022/03/26 04:23:27;;;;;;;129.67;46.60;;;0.90;1.00;;;;;;4288077;28;660582;-93
2022/03/26 04:26:15;;;;;;;129.98;44.95;;;0.80;1.00;;;;;;4322877;28;657898;-91
2022/03/26 04:29:02;;;;;;;141.27;48.33;;;0.80;1.00;;;;;;4313457;28;659008;-90
2022/03/26 04:31:50;;;;;;;126.00;47.60;;;0.70;1.00;;;;;;4331288;28;658891;-89
2022/03/26 04:34:38;;;;;;;110.23;41.43;;;0.60;1.00;;;;;;4318111;28;659378;-90
2022/03/26 04:37:26;;;;;;;121.47;44.27;;;0.70;99.90;;;;;;4315762;28;658965;-90
2022/03/26 04:40:14;;;;;;;123.70;45.07;;;0.90;1.00;;;;;;4332618;28;661023;-90
2022/03/26 04:43:01;;;;;;;123.25;43.70;;;1.00;1.00;;;;;;4311460;28;658974;-91
2022/03/26 04:45:49;;;;;;;114.70;42.83;;;1.00;1.00;;;;;;4330388;28;659042;-91
2022/03/26 04:48:36;;;;;;;133.00;47.60;;;1.10;1.00;;;;;;4311189;28;658786;-89
2022/03/26 04:51:25;;;;;;;128.17;47.77;;;1.10;99.90;;;;;;4335221;28;659507;-90
2022/03/26 04:54:12;;;;;;;129.75;45.33;;;1.20;99.90;;;;;;4316623;28;660494;-91
2022/03/26 04:57:00;;;;;;;118.37;46.53;;;1.40;99.90;;;;;;4319304;28;659474;-89
2022/03/26 04:59:48;;;;;;;116.60;44.53;;;1.50;99.90;;;;;;4329785;28;660549;-91
2022/03/26 05:02:36;;;;;;;113.93;43.80;;;1.60;99.90;;;;;;4321236;28;660261;-90
2022/03/26 05:05:23;;;;;;;115.83;45.80;;;1.80;1.00;;;;;;4333343;28;659869;-92
2022/03/26 05:08:13;;;;;;;121.77;46.30;;;1.90;1.00;;;;;;4312565;28;658671;-92
2022/03/26 05:11:00;;;;;;;113.53;44.60;;;2.10;1.00;;;;;;4312804;28;658825;-89
2022/03/26 05:13:49;;;;;;;108.40;44.67;;;2.20;1.00;;;;;;4334125;28;659120;-90
2022/03/26 05:16:37;;;;;;;123.70;44.90;;;2.30;1.00;;;;;;4315449;28;659059;-89
2022/03/26 05:19:24;;;;;;;106.43;42.93;;;2.50;99.90;;;;;;4334959;28;658671;-90
2022/03/26 05:22:11;;;;;;;108.00;42.40;;;2.60;99.90;;;;;;4316628;28;659973;-89
2022/03/26 05:25:00;;;;;;;112.77;41.23;;;2.70;99.90;;;;;;4335742;28;659927;-90
2022/03/26 05:27:48;;;;;;;105.47;42.40;;;2.90;99.90;;;;;;4301109;28;659663;-89
2022/03/26 05:30:36;;;;;;;96.27;39.40;;;3.10;99.90;;;;;;4304365;29;660054;-90
2022/03/26 05:33:23;;;;;;;111.63;42.87;;;3.20;94.90;;;;;;4328945;28;659075;-89
2022/03/26 05:36:10;;;;;;;100.50;41.83;;;3.50;18.30;;;;;;4311697;28;659892;-89
2022/03/26 05:38:58;;;;;;;99.77;40.00;;;3.60;1.00;;;;;;4328267;28;660077;-89
2022/03/26 05:41:47;;;;;;;103.97;39.00;;;3.70;1.00;;;;;;4307675;28;658087;-89
2022/03/26 05:44:35;;;;;;;91.13;36.87;;;3.90;1.00;;;;;;4328492;28;658087;-89
2022/03/26 05:47:23;;;;;;;93.70;37.40;;;4.00;1.00;;;;;;4307312;28;657918;-88
2022/03/26 05:50:12;;;;;;;100.10;36.40;;;4.10;1.00;;;;;;4303681;28;657873;-88
2022/03/26 05:52:59;;;;;;;93.30;38.13;;;4.20;1.00;;;;;;4331027;28;658648;-88
2022/03/26 05:55:46;;;;;;;58.97;22.33;;;4.20;1.00;;;;;;4317879;28;657598;-88
2022/03/26 05:58:35;;;;;;;80.07;29.93;;;4.30;1.00;;;;;;4335694;28;657308;-88
2022/03/26 06:01:23;;;;;;;92.50;36.07;;;4.40;1.00;;;;;;4315920;28;658152;-88
2022/03/26 06:04:10;;;;;;;106.82;39.47;;;4.60;1.00;;;;;;4318348;28;657501;-88
2022/03/26 06:06:59;;;;;;;96.97;37.90;;;4.60;1.00;;;;;;4330486;28;659070;-89
2022/03/26 06:09:46;;;;;;;104.67;39.53;;;4.70;1.00;;;;;;4320866;28;658935;-89
2022/03/26 06:12:35;;;;;;;91.90;36.63;;;4.80;1.00;;;;;;4340520;28;658676;-89
2022/03/26 06:15:24;;;;;;;94.73;36.10;;;4.90;1.00;;;;;;4313988;28;658185;-90
2022/03/26 06:18:19;;;;;;;85.00;34.45;;;5.00;1.00;;;;;;4274619;28;657779;-91
2022/03/26 06:21:07;;;;;;;75.90;28.50;;;5.00;1.00;;;;;;4311619;28;660117;-91
2022/03/26 06:23:55;;;;;;;82.13;33.60;;;5.20;1.00;;;;;;4327986;28;657761;-91
2022/03/26 06:26:44;;;;;;;92.77;35.80;;;5.20;1.00;;;;;;4320541;28;658165;-90
2022/03/26 06:29:33;;;;;;;89.37;32.03;;;5.40;1.00;;;;;;4313416;28;657442;-90
2022/03/26 06:32:22;;;;;;;85.90;34.87;;;5.60;1.00;;;;;;4322523;28;657746;-89
2022/03/26 06:35:09;;;;;;;74.07;30.33;;;5.70;1.00;;;;;;4329830;28;657669;-91
2022/03/26 06:37:57;;;;;;;82.17;33.97;;;5.80;1.00;;;;;;4310163;28;657435;-90
2022/03/26 06:40:44;;;;;;;74.97;30.37;;;5.90;1.00;;;;;;4337774;28;657536;-90
2022/03/26 06:43:32;;;;;;;70.37;30.63;;;6.00;1.00;;;;;;4300122;28;657562;-89
2022/03/26 06:46:19;;;;;;;72.67;30.40;;;6.20;1.00;;;;;;4307782;29;657301;-88
2022/03/26 06:49:08;;;;;;;65.00;26.23;;;6.30;1.00;;;;;;4309273;28;657555;-89
2022/03/26 06:51:56;;;;;;;78.10;31.17;;;6.40;1.00;;;;;;4303761;28;658043;-88
2022/03/26 06:54:44;;;;;;;75.27;32.30;;;6.50;1.00;;;;;;4335404;28;657670;-88
2022/03/26 06:57:31;;;;;;;75.43;29.07;;;6.70;1.00;;;;;;4311459;28;657584;-90
2022/03/26 07:00:19;;;;;;;77.10;30.27;;;6.90;1.00;;;;;;4338063;28;657653;-87
2022/03/26 07:03:06;;;;;;;78.67;32.10;;;7.10;1.00;;;;;;4300234;28;657722;-88
2022/03/26 07:05:55;;;;;;;72.30;27.50;;;7.20;1.00;;;;;;4330349;28;657595;-88
2022/03/26 07:08:43;;;;;;;68.97;29.00;;;7.30;1.00;;;;;;4310813;28;657820;-89
2022/03/26 07:11:30;;;;;;;70.07;30.33;;;7.50;1.00;;;;;;4309681;28;657960;-87
2022/03/26 07:14:18;;;;;;;66.73;26.00;;;7.60;1.00;;;;;;4326329;28;658761;-90
2022/03/26 07:17:06;;;;;;;75.18;31.08;;;7.80;1.00;;;;;;4307641;29;657492;-88
2022/03/26 07:19:53;;;;;;;66.23;24.07;;;8.00;1.00;;;;;;4316052;28;657757;-89
2022/03/26 07:22:42;;;;;;;58.83;24.43;;;8.20;1.00;;;;;;4311219;28;658469;-89
2022/03/26 07:25:30;;;;;;;76.10;30.63;;;8.40;1.00;;;;;;4327986;28;657001;-87
2022/03/26 07:28:18;;;;;;;67.97;28.90;;;8.50;1.00;;;;;;4302837;28;657724;-87
2022/03/26 07:31:06;;;;;;;65.30;28.65;;;8.60;1.00;;;;;;4316865;28;657736;-87
2022/03/26 07:33:53;;;;;;;72.50;30.77;;;8.80;1.00;;;;;;4334305;28;658192;-87
2022/03/26 07:36:41;;;;;;;72.80;32.67;;;9.20;1.00;;;;;;4318214;28;657375;-87
2022/03/26 07:39:30;;;;;;;68.23;19.20;;;9.20;1.00;;;;;;4342155;28;658299;-87
2022/03/26 07:42:17;;;;;;;65.77;27.53;;;9.40;1.00;;;;;;4314030;28;658223;-87
2022/03/26 07:45:05;;;;;;;77.80;31.77;;;9.50;1.00;;;;;;4338046;28;657356;-87
2022/03/26 07:47:52;;;;;;;60.07;23.93;;;9.50;1.00;;;;;;4318936;28;657804;-88
2022/03/26 07:50:40;;;;;;;72.60;30.60;;;9.70;1.00;;;;;;4340049;28;657089;-88
2022/03/26 07:53:29;;;;;;;77.23;31.40;;;9.80;1.00;;;;;;4309298;28;658427;-89
2022/03/26 07:56:18;;;;;;;68.73;30.60;;;9.90;1.00;;;;;;4323966;28;657628;-87
2022/03/26 07:59:06;;;;;;;48.90;18.92;;;9.80;1.00;;;;;;4318686;28;657591;-88
2022/03/26 08:01:53;;;;;;;63.70;26.07;;;9.90;1.00;;;;;;4345903;28;658628;-88
2022/03/26 08:04:40;;;;;;;64.20;27.33;;;10.20;1.00;;;;;;4318440;28;657488;-88
2022/03/26 08:07:28;;;;;;;67.97;30.77;;;10.30;1.00;;;;;;4344731;28;658973;-88
2022/03/26 08:10:15;;;;;;;63.80;28.33;;;10.50;1.00;;;;;;4314777;28;658717;-87
2022/03/26 08:13:04;;;;;;;68.57;30.70;;;10.70;1.00;;;;;;4340911;28;658889;-87
2022/03/26 08:15:52;;;;;;;55.57;24.47;;;10.80;1.00;;;;;;4308110;28;658544;-86
2022/03/26 08:18:40;;;;;;;62.37;29.43;;;11.00;1.00;;;;;;4340633;28;658405;-88
2022/03/26 08:21:28;;;;;;;56.70;25.97;;;11.20;1.00;;;;;;4314272;28;658938;-88
2022/03/26 08:24:15;;;;;;;66.07;28.83;;;11.50;1.00;;;;;;4332129;28;658502;-87
2022/03/26 08:27:03;;;;;;;64.93;27.83;;;11.70;1.00;;;;;;4308675;28;659158;-88
2022/03/26 08:29:52;;;;;;;63.90;27.83;;;11.80;1.00;;;;;;4306635;28;658751;-89
2022/03/26 08:32:40;;;;;;;62.60;26.47;;;11.90;1.00;;;;;;4319502;28;658503;-91
2022/03/26 08:35:27;;;;;;;53.67;24.63;;;12.10;1.00;;;;;;4306718;28;659598;-90
2022/03/26 08:38:14;;;;;;;61.53;27.93;;;12.40;1.00;;;;;;4332183;28;659004;-90
2022/03/26 08:41:02;;;;;;;62.13;26.30;;;12.70;1.00;;;;;;4315041;28;658370;-89
2022/03/26 08:43:50;;;;;;;44.43;18.43;;;12.80;1.00;;;;;;4341050;28;658634;-88
2022/03/26 08:46:39;;;;;;;55.13;26.27;;;12.70;1.00;;;;;;4302545;28;659342;-88
2022/03/26 08:49:28;;;;;;;55.28;25.73;;;12.50;1.00;;;;;;4309880;28;658883;-92
2022/03/26 08:52:17;;;;;;;31.23;12.80;;;12.60;1.00;;;;;;4316296;28;660336;-89
2022/03/26 08:55:04;;;;;;;35.67;13.30;;;12.80;1.00;;;;;;4335091;28;658520;-89
2022/03/26 08:57:52;;;;;;;54.60;25.20;;;12.90;1.00;;;;;;4311779;28;659068;-90
2022/03/26 09:00:39;;;;;;;63.03;26.33;;;13.20;1.00;;;;;;4339848;28;659345;-89
2022/03/26 09:03:28;;;;;;;46.17;19.60;;;13.40;1.00;;;;;;4310845;28;659073;-89
2022/03/26 09:06:15;;;;;;;45.03;17.53;;;13.60;1.00;;;;;;4308675;28;659386;-87
2022/03/26 09:09:04;;;;;;;52.60;24.73;;;13.80;1.00;;;;;;4322420;29;659692;-86
2022/03/26 09:11:53;;;;;;;48.63;20.03;;;14.00;1.00;;;;;;4315167;28;658967;-87
2022/03/26 09:14:40;;;;;;;49.07;20.97;;;14.10;1.00;;;;;;4295499;28;658402;-88
2022/03/26 09:17:28;;;;;;;50.30;23.87;;;14.10;1.00;;;;;;4318177;28;658620;-90
2022/03/26 09:20:17;;;;;;;44.42;21.58;;;14.10;1.00;;;;;;4316765;28;658862;-88
2022/03/26 09:23:04;;;;;;;28.50;12.43;;;14.30;1.00;;;;;;4325462;28;658719;-88
2022/03/26 09:25:52;;;;;;;52.70;23.67;;;14.30;1.00;;;;;;4302724;28;659468;-89
2022/03/26 09:28:39;;;;;;;41.30;16.37;;;14.20;1.00;;;;;;4339982;28;658359;-88
2022/03/26 09:31:26;;;;;;;37.87;17.70;;;14.20;1.00;;;;;;4314169;28;659525;-90
2022/03/26 09:34:14;;;;;;;40.70;14.13;;;14.40;1.00;;;;;;4339399;28;658484;-88
2022/03/26 09:37:03;;;;;;;52.10;22.93;;;14.40;1.00;;;;;;4323337;28;658978;-91
2022/03/26 09:39:50;;;;;;;55.07;23.50;;;14.60;1.00;;;;;;4319128;28;658752;-89
2022/03/26 09:42:38;;;;;;;53.97;22.53;;;15.10;1.00;;;;;;4330257;28;658995;-91
2022/03/26 09:45:25;;;;;;;47.50;22.47;;;15.10;1.00;;;;;;4301204;28;658690;-88
2022/03/26 09:48:13;;;;;;;37.77;16.67;;;14.70;1.00;;;;;;4335507;28;659567;-91
2022/03/26 09:51:00;;;;;;;29.67;11.30;;;14.70;1.00;;;;;;4315341;28;658789;-88
2022/03/26 09:53:50;;;;;;;51.37;21.90;;;15.10;1.00;;;;;;4329104;28;659525;-89
2022/03/26 09:56:38;;;;;;;42.60;18.40;;;15.40;1.00;;;;;;4314523;28;658775;-90
2022/03/26 09:59:25;;;;;;;38.60;17.57;;;15.60;1.00;;;;;;4322422;28;658373;-88
2022/03/26 10:02:13;;;;;;;36.50;15.40;;;15.30;1.00;;;;;;4338804;28;658797;-91
2022/03/26 10:05:01;;;;;;;33.33;14.97;;;15.50;1.00;;;;;;4298443;28;659144;-89
2022/03/26 10:07:50;;;;;;;43.23;13.37;;;16.10;1.00;;;;;;4335174;28;658726;-91
2022/03/26 10:10:43;;;;;;;36.78;13.57;;;16.10;1.00;;;;;;4310194;28;658944;-90
2022/03/26 10:13:37;;;;;;;29.27;12.87;;;15.90;1.00;;;;;;4310133;28;658563;-91
2022/03/26 10:16:25;;;;;;;35.00;14.67;;;16.20;1.00;;;;;;4301411;28;659430;-92
2022/03/26 10:19:13;;;;;;;43.77;13.23;;;16.20;1.00;;;;;;4283496;28;659424;-92
2022/03/26 10:22:01;;;;;;;34.07;12.13;;;16.20;1.00;;;;;;4302461;29;659636;-93
2022/03/26 10:24:49;;;;;;;25.50;12.67;;;16.30;1.00;;;;;;4314934;28;658691;-93
2022/03/26 10:27:39;;;;;;;24.17;8.43;;;16.20;1.00;;;;;;4292865;28;658668;-91
2022/03/26 10:33:30;;;;;;;37.50;10.83;;;16.50;1.00;;;;;;4297194;29;657174;-93
2022/03/26 10:36:21;;;;;;;23.10;12.07;;;16.40;1.00;;;;;;4295382;29;659225;-91
2022/03/26 10:39:14;;;;;;;33.90;13.37;;;16.40;1.00;;;;;;4306650;29;659146;-89
2022/03/26 10:42:01;;;;;;;28.17;12.13;;;16.80;1.00;;;;;;4303524;29;658707;-93
2022/03/26 10:44:50;;;;;;;26.77;11.83;;;17.20;1.00;;;;;;4317200;29;658602;-91
2022/03/26 10:47:38;;;;;;;30.40;12.73;;;17.20;1.00;;;;;;4291630;29;659586;-91
2022/03/26 10:50:27;;;;;;;35.17;14.07;;;17.00;1.00;;;;;;4292154;29;658948;-91
2022/03/26 10:53:15;;;;;;;28.00;13.73;;;17.30;1.00;;;;;;4320689;29;659080;-92
2022/03/26 10:56:03;;;;;;;29.87;12.53;;;17.50;1.00;;;;;;4300487;29;659902;-89
2022/03/26 10:58:50;;;;;;;26.53;12.67;;;17.60;1.00;;;;;;4309289;29;659035;-91
2022/03/26 11:01:39;;;;;;;29.57;13.10;;;17.30;1.00;;;;;;4313329;29;659355;-91
2022/03/26 11:04:27;;;;;;;33.53;14.70;;;17.20;1.00;;;;;;4286378;29;658993;-91
2022/03/26 11:07:14;;;;;;;24.60;11.70;;;17.30;1.00;;;;;;4318851;29;658955;-92
2022/03/26 11:10:02;;;;;;;31.53;11.40;;;17.60;1.00;;;;;;4291467;29;660267;-90
2022/03/26 11:12:50;;;;;;;26.17;9.83;;;18.00;1.00;;;;;;4315079;29;658582;-91
2022/03/26 11:15:40;;;;;;;29.90;12.93;;;17.90;1.00;;;;;;4296542;29;657403;-91
2022/03/26 11:18:44;;;;;;;31.67;13.10;;;17.90;1.00;;;;;;4292952;29;658992;-89
2022/03/26 11:21:47;;;;;;;29.43;11.23;;;17.80;1.00;;;;;;4296372;29;658400;-90
2022/03/26 11:24:52;;;;;;;38.37;12.93;;;17.90;1.00;;;;;;4293525;29;658388;-89
2022/03/26 11:27:50;;;;;;;30.47;12.23;;;17.50;1.00;;;;;;4302896;28;658844;-91
2022/03/26 11:30:42;;;;;;;19.50;10.07;;;17.20;1.00;;;;;;4305004;28;659223;-90
2022/03/26 11:33:36;;;;;;;29.67;13.17;;;17.30;1.00;;;;;;4309553;28;658188;-91
2022/03/26 11:36:28;;;;;;;26.50;10.60;;;17.20;1.00;;;;;;4299874;28;658708;-90
2022/03/26 11:39:17;;;;;;;26.30;11.93;;;16.30;1.00;;;;;;4300506;28;660099;-91
2022/03/26 11:42:07;;;;;;;29.50;11.03;;;16.40;1.00;;;;;;4330776;28;658639;-92
2022/03/26 11:51:26;;;;;;;33.17;11.43;;;17.60;1.00;;;;;;4297152;29;658940;-90
2022/03/26 11:54:14;;;;;;;21.10;10.07;;;17.80;1.00;;;;;;4322088;28;659011;-91
2022/03/26 11:57:08;;;;;;;30.50;12.57;;;17.80;1.00;;;;;;4322761;28;659005;-89
2022/03/26 11:59:55;;;;;;;28.63;12.57;;;17.90;1.00;;;;;;4299488;28;658639;-88
2022/03/26 12:02:49;;;;;;;23.27;11.03;;;18.10;1.00;;;;;;4328425;29;659098;-88
2022/03/26 12:08:49;;;;;;;26.60;10.83;;;18.30;1.00;;;;;;4322979;28;658038;-88
2022/03/26 12:11:36;;;;;;;30.77;12.30;;;18.70;1.00;;;;;;4320480;28;659644;-88
2022/03/26 12:14:24;;;;;;;26.23;12.07;;;18.80;1.00;;;;;;4344670;28;658575;-88
2022/03/26 12:17:11;;;;;;;24.03;11.70;;;18.30;1.00;;;;;;4305794;29;658481;-87
2022/03/26 12:20:18;;;;;;;29.63;11.00;;;18.00;1.00;;;;;;4345006;28;659591;-89
2022/03/26 12:23:11;;;;;;;20.13;8.07;;;18.00;1.00;;;;;;4313175;28;658801;-87
2022/03/26 12:26:02;;;;;;;25.80;9.83;;;18.30;1.00;;;;;;4321583;28;657652;-88
2022/03/26 12:28:50;;;;;;;19.70;8.77;;;17.60;1.00;;;;;;4323421;28;657362;-88
2022/03/26 12:31:37;;;;;;;12.47;5.83;;;17.80;1.00;;;;;;4314598;28;659078;-88
2022/03/26 12:34:24;;;;;;;20.70;6.90;;;18.10;1.00;;;;;;4334043;28;657634;-89
2022/03/26 12:37:12;;;;;;;22.30;9.63;;;18.30;1.00;;;;;;4310134;28;657938;-89
2022/03/26 12:39:59;;;;;;;22.00;10.20;;;18.10;1.00;;;;;;4343425;28;657782;-90
2022/03/26 12:42:52;;;;;;;20.63;10.23;;;18.00;1.00;;;;;;4318182;28;658979;-88
2022/03/26 12:45:40;;;;;;;27.47;10.33;;;17.50;1.00;;;;;;4309374;28;659319;-88
2022/03/26 12:48:28;;;;;;;26.60;9.83;;;17.80;1.00;;;;;;4316103;28;659627;-88
2022/03/26 12:51:16;;;;;;;19.03;8.93;;;18.00;1.00;;;;;;4324528;28;657890;-87
2022/03/26 12:54:03;;;;;;;29.63;10.07;;;18.30;1.00;;;;;;4344554;28;658673;-88
2022/03/26 12:56:51;;;;;;;25.60;10.47;;;18.60;1.00;;;;;;4313586;28;658440;-88
2022/03/26 12:59:38;;;;;;;29.60;9.37;;;19.10;1.00;;;;;;4312867;28;659231;-88
2022/03/26 13:02:28;;;;;;;36.37;11.10;;;19.60;1.00;;;;;;4322780;28;657283;-89
2022/03/26 13:05:16;;;;;;;21.77;6.50;;;19.80;1.00;;;;;;4315830;28;658766;-90
2022/03/26 13:08:03;;;;;;;26.20;10.53;;;19.60;1.00;;;;;;4332446;28;658067;-87
2022/03/26 13:10:52;;;;;;;27.00;9.40;;;18.60;1.00;;;;;;4312519;28;658653;-88
2022/03/26 13:13:46;;;;;;;25.33;9.13;;;18.90;1.00;;;;;;4340534;28;657467;-88
2022/03/26 13:16:35;;;;;;;21.37;9.60;;;19.40;1.00;;;;;;4315024;28;658011;-90
2022/03/26 13:19:23;;;;;;;18.03;8.50;;;20.00;1.00;;;;;;4313563;28;658451;-90
2022/03/26 13:22:10;;;;;;;20.73;9.60;;;19.40;1.00;;;;;;4321822;28;657456;-88
2022/03/26 13:25:01;;;;;;;18.77;8.80;;;19.20;1.00;;;;;;4333967;28;657982;-88
2022/03/26 13:27:48;;;;;;;18.87;7.23;;;19.00;1.00;;;;;;4310086;28;658304;-89
2022/03/26 13:30:36;;;;;;;19.70;9.07;;;18.80;1.00;;;;;;4309309;28;657856;-89
2022/03/26 13:33:28;;;;;;;21.83;9.53;;;18.40;1.00;;;;;;4320933;28;657678;-91
2022/03/26 13:36:25;;;;;;;19.23;8.67;;;18.00;1.00;;;;;;4314248;28;657701;-91
2022/03/26 13:39:20;;;;;;;22.77;8.60;;;17.90;1.00;;;;;;4312514;28;657617;-92
2022/03/26 13:42:11;;;;;;;26.80;10.37;;;17.70;1.00;;;;;;4310231;28;658381;-92
2022/03/26 13:44:59;;;;;;;26.53;10.23;;;17.50;1.00;;;;;;4312411;28;658737;-92
2022/03/26 13:47:54;;;;;;;22.50;8.33;;;17.30;1.00;;;;;;4297645;29;658693;-91
2022/03/26 13:50:43;;;;;;;9.93;5.07;;;17.10;1.00;;;;;;4291276;28;657845;-89
2022/03/26 13:53:39;;;;;;;25.93;7.90;;;17.10;1.00;;;;;;4313608;28;656055;-91
2022/03/26 13:56:27;;;;;;;20.43;7.57;;;17.10;1.00;;;;;;4305901;28;658085;-88
2022/03/26 13:59:14;;;;;;;25.87;8.90;;;17.20;1.00;;;;;;4337125;28;657489;-92
2022/03/26 14:02:02;;;;;;;19.37;7.57;;;17.50;1.00;;;;;;4313831;28;657877;-90
2022/03/26 14:04:49;;;;;;;19.90;6.00;;;17.50;1.00;;;;;;4340544;28;657364;-89
2022/03/26 14:07:38;;;;;;;20.17;7.03;;;17.70;1.00;;;;;;4314932;28;657921;-90
2022/03/26 14:10:33;;;;;;;20.27;7.50;;;17.80;1.00;;;;;;4288963;28;658190;-90
2022/03/26 14:13:20;;;;;;;20.07;5.43;;;18.00;1.00;;;;;;4277290;29;658165;-90
2022/03/26 14:16:08;;;;;;;22.73;7.40;;;18.30;1.00;;;;;;4330602;28;658821;-89
2022/03/26 14:18:55;;;;;;;14.07;6.90;;;18.30;1.00;;;;;;4312073;28;657709;-89
2022/03/26 14:21:44;;;;;;;30.97;7.87;;;18.40;1.00;;;;;;4338002;28;657473;-90
2022/03/26 14:24:33;;;;;;;16.53;5.50;;;18.60;1.00;;;;;;4311051;28;657676;-89
2022/03/26 14:27:20;;;;;;;23.30;8.10;;;18.50;1.00;;;;;;4311059;28;657367;-90